createdAt,value
2022-10-17T00:02:44.046Z,100183.22
2022-10-17T00:06:45.616Z,100184.88
2022-10-17T00:11:03.059Z,100189.25
2022-10-17T00:15:06.365Z,100196.47
2022-10-17T00:19:08.031Z,100199.75
2022-10-17T00:23:10.842Z,100197.53
2022-10-17T00:27:12.387Z,100198.06
2022-10-17T00:31:14.446Z,100201.91
2022-10-17T00:35:16.047Z,100197.72
2022-10-17T00:39:17.742Z,100195.22
2022-10-17T00:43:19.343Z,100196.56
2022-10-17T00:47:22.917Z,100208.78
2022-10-17T00:51:34.268Z,100199.34
2022-10-17T00:55:42.632Z,100198.53
2022-10-17T00:59:48.811Z,100210.72
2022-10-17T01:03:50.625Z,100204.88
2022-10-17T01:07:54.022Z,100217.84
2022-10-17T01:12:26.015Z,100215.88
2022-10-17T01:16:52.205Z,100216.94
2022-10-17T01:21:08.704Z,100216.09
2022-10-17T01:25:29.119Z,100210.81
2022-10-17T01:29:52.386Z,100211.63
2022-10-17T01:34:23.438Z,100205.53
2022-10-17T01:38:42.469Z,100206.38
2022-10-17T01:43:25.351Z,100204.72
2022-10-17T01:47:31.240Z,100203.66
2022-10-17T01:51:46.096Z,100198.47
2022-10-17T01:55:51.363Z,100194.09
2022-10-17T01:59:56.152Z,100187.25
2022-10-17T02:04:00.027Z,100191.50
2022-10-17T02:08:02.592Z,100191.50
2022-10-17T02:12:11.920Z,100193.72
2022-10-17T02:16:21.370Z,100192.56
2022-10-17T02:20:25.007Z,100190.38
2022-10-17T02:24:52.672Z,100199.28
2022-10-17T02:29:17.315Z,100188.19
2022-10-17T02:33:35.544Z,100193.66
2022-10-17T02:37:38.459Z,100206.59
2022-10-17T02:41:42.391Z,100196.88
2022-10-17T02:45:44.120Z,100202.69
2022-10-17T02:49:51.926Z,100199.94
2022-10-17T02:54:12.508Z,100204.94
2022-10-17T02:58:25.552Z,100206.59
2022-10-17T03:02:27.503Z,100220.25
2022-10-17T03:06:29.372Z,100221.31
2022-10-17T03:10:30.986Z,100216.66
2022-10-17T03:14:32.826Z,100219.97
2022-10-17T03:18:34.425Z,100224.16
2022-10-17T03:22:37.856Z,100224.97
2022-10-17T03:26:40.921Z,100223.06
2022-10-17T03:30:42.745Z,100232.47
2022-10-17T03:34:44.610Z,100231.38
2022-10-17T03:38:46.628Z,100230.53
2022-10-17T03:42:51.927Z,100242.97
2022-10-17T03:46:53.712Z,100243.75
2022-10-17T03:51:03.554Z,100246.22
2022-10-17T03:55:08.018Z,100248.97
2022-10-17T03:59:15.667Z,100252.25
2022-10-17T04:03:24.522Z,100265.53
2022-10-17T04:11:50.675Z,100266.88
2022-10-17T04:16:01.331Z,100272.13
2022-10-17T04:20:04.291Z,100280.09
2022-10-17T04:24:06.345Z,100278.44
2022-10-17T04:28:20.902Z,100282.56
2022-10-17T04:32:22.611Z,100280.91
2022-10-17T04:36:39.258Z,100281.97
2022-10-17T04:40:40.838Z,100280.31
2022-10-17T04:44:43.733Z,100283.59
2022-10-17T04:48:45.722Z,100276.66
2022-10-17T04:52:47.858Z,100279.69
2022-10-17T04:56:49.962Z,100281.31
2022-10-17T05:00:51.807Z,100276.28
2022-10-17T05:05:00.595Z,100283.47
2022-10-17T05:09:02.279Z,100279.53
2022-10-17T05:13:04.486Z,100279.47
2022-10-17T05:17:08.796Z,100289.16
2022-10-17T05:21:10.644Z,100278.31
2022-10-17T05:25:13.335Z,100278.81
2022-10-17T05:29:15.101Z,100276.06
2022-10-17T05:33:23.062Z,100271.09
2022-10-17T05:37:24.770Z,100273.63
2022-10-17T05:41:29.692Z,100288.84
2022-10-17T05:45:31.381Z,100309.25
2022-10-17T05:49:44.973Z,100306.94
2022-10-17T05:53:51.177Z,100308.28
2022-10-17T05:58:00.299Z,100322.41
2022-10-17T06:02:06.739Z,100332.38
2022-10-17T06:06:14.335Z,100324.66
2022-10-17T06:10:19.190Z,100313.91
2022-10-17T06:14:21.053Z,100319.75
2022-10-17T06:18:26.798Z,100318.13
2022-10-17T06:22:30.101Z,100318.47
2022-10-17T06:26:32.094Z,100325.69
2022-10-17T06:30:34.085Z,100332.63
2022-10-17T06:34:35.870Z,100333.78
2022-10-17T06:38:37.474Z,100342.09
2022-10-17T06:42:43.774Z,100342.69
2022-10-17T06:47:20.502Z,100339.91
2022-10-17T06:51:23.705Z,100364.31
2022-10-17T06:55:31.337Z,100371.28
2022-10-17T06:59:47.191Z,100388.81
2022-10-17T07:03:56.114Z,100388.53
2022-10-17T07:07:58.128Z,100386.66
2022-10-17T07:12:00.277Z,100396.19
2022-10-17T07:16:02.309Z,100383.00
2022-10-17T07:20:06.589Z,100368.94
2022-10-17T07:24:10.355Z,100383.19
2022-10-17T07:28:15.163Z,100377.50
2022-10-17T07:32:19.251Z,100382.88
2022-10-17T07:36:21.091Z,100384.72
2022-10-17T07:40:23.034Z,100385.94
2022-10-17T07:44:24.911Z,100383.59
2022-10-17T07:48:28.055Z,100388.47
2022-10-17T07:52:30.562Z,100414.38
2022-10-17T07:56:33.506Z,100412.03
2022-10-17T08:00:36.509Z,100419.94
2022-10-17T08:04:39.215Z,100421.69
2022-10-17T08:08:42.019Z,100423.72
2022-10-17T08:12:43.596Z,100424.88
2022-10-17T08:16:46.524Z,100431.91
2022-10-17T08:20:48.744Z,100443.59
2022-10-17T08:24:50.355Z,100428.28
2022-10-17T08:28:52.034Z,100432.16
2022-10-17T08:32:56.069Z,100414.00
2022-10-17T08:36:57.725Z,100407.78
2022-10-17T08:41:02.904Z,100413.78
2022-10-17T08:45:30.243Z,100413.41
2022-10-17T08:49:51.344Z,100413.03
2022-10-17T08:54:13.044Z,100410.66
2022-10-17T08:58:20.071Z,100400.72
2022-10-17T09:02:47.254Z,100409.25
2022-10-17T09:07:09.699Z,100409.94
2022-10-17T09:11:13.875Z,100403.13
2022-10-17T09:15:43.080Z,100417.03
2022-10-17T09:20:04.419Z,100427.94
2022-10-17T09:24:17.393Z,100433.78
2022-10-17T09:28:19.022Z,100430.72
2022-10-17T09:32:25.467Z,100435.81
2022-10-17T09:36:31.161Z,100443.22
2022-10-17T09:40:34.731Z,100441.38
2022-10-17T09:44:47.938Z,100440.13
2022-10-17T09:48:55.240Z,100443.25
2022-10-17T09:53:01.776Z,100443.63
2022-10-17T09:57:07.285Z,100439.22
2022-10-17T10:01:29.740Z,100443.84
2022-10-17T10:05:31.374Z,100455.56
2022-10-17T10:09:39.369Z,100455.84
2022-10-17T10:13:43.114Z,100452.53
2022-10-17T10:17:44.833Z,100454.53
2022-10-17T10:22:01.350Z,100467.25
2022-10-17T10:26:20.961Z,100467.03
2022-10-17T10:30:28.661Z,100459.59
2022-10-17T10:34:31.477Z,100463.47
2022-10-17T10:38:34.760Z,100451.22
2022-10-17T10:42:39.860Z,100446.97
2022-10-17T10:46:41.649Z,100446.31
2022-10-17T10:50:50.455Z,100446.16
2022-10-17T10:55:07.071Z,100450.22
2022-10-17T10:59:08.576Z,100451.34
2022-10-17T11:03:19.543Z,100463.69
2022-10-17T11:07:29.842Z,100455.38
2022-10-17T11:11:47.289Z,100464.41
2022-10-17T11:16:13.317Z,100457.88
2022-10-17T11:20:19.892Z,100458.19
2022-10-17T11:24:27.857Z,100456.66
2022-10-17T11:28:30.164Z,100471.84
2022-10-17T11:32:44.431Z,100474.47
2022-10-17T11:36:57.902Z,100471.03
2022-10-17T11:41:00.409Z,100468.78
2022-10-17T11:45:14.193Z,100471.34
2022-10-17T11:49:21.820Z,100469.22
2022-10-17T11:53:28.731Z,100468.03
2022-10-17T11:57:34.982Z,100469.88
2022-10-17T12:02:10.965Z,100466.84
2022-10-17T12:06:34.612Z,100467.66
2022-10-17T12:11:01.694Z,100467.56
2022-10-17T12:15:24.314Z,100465.22
2022-10-17T12:19:30.977Z,100454.75
2022-10-17T12:23:32.930Z,100454.28
2022-10-17T12:27:42.281Z,100458.53
2022-10-17T12:31:43.943Z,100447.69
2022-10-17T12:35:45.534Z,100450.84
2022-10-17T12:39:47.155Z,100445.91
2022-10-17T12:47:52.671Z,100453.97
2022-10-17T12:52:35.269Z,100452.88
2022-10-17T12:56:40.438Z,100456.81
2022-10-17T13:01:18.750Z,100469.97
2022-10-17T13:05:32.837Z,100461.78
2022-10-17T13:09:42.563Z,100459.69
2022-10-17T13:13:53.920Z,100453.13
2022-10-17T13:18:00.171Z,100457.69
2022-10-17T13:27:34.741Z,100479.03
2022-10-17T13:31:38.540Z,100484.63
2022-10-17T13:36:00.404Z,100484.84
2022-10-17T13:40:17.449Z,100480.41
2022-10-17T13:44:32.121Z,100484.16
2022-10-17T13:48:37.534Z,100492.28
2022-10-17T13:52:48.604Z,100500.56
2022-10-17T13:56:58.389Z,100486.94
2022-10-17T14:01:01.425Z,100492.22
2022-10-17T14:05:23.012Z,100483.06
2022-10-17T14:09:30.821Z,100490.63
2022-10-17T14:13:36.236Z,100489.94
2022-10-17T14:17:38.656Z,100492.41
2022-10-17T14:21:44.502Z,100495.38
2022-10-17T14:25:46.531Z,100495.09
2022-10-17T14:29:53.923Z,100494.63
2022-10-17T14:33:56.318Z,100485.66
2022-10-17T14:37:59.281Z,100495.53
2022-10-17T14:42:04.423Z,100498.63
2022-10-17T14:46:07.126Z,100493.53
2022-10-17T14:50:11.585Z,100504.66
2022-10-17T14:54:29.215Z,100506.22
2022-10-17T14:58:33.168Z,100515.94
2022-10-17T15:02:35.012Z,100524.75
2022-10-17T15:06:36.772Z,100524.91
2022-10-17T15:10:41.971Z,100531.59
2022-10-17T15:14:44.735Z,100521.75
2022-10-17T15:18:46.693Z,100539.22
2022-10-17T15:22:48.715Z,100540.75
2022-10-17T15:26:50.421Z,100540.91
2022-10-17T15:30:52.088Z,100539.97
2022-10-17T15:34:53.678Z,100538.03
2022-10-17T15:38:58.130Z,100534.38
2022-10-17T15:42:59.860Z,100534.59
2022-10-17T15:47:01.801Z,100533.63
2022-10-17T15:51:03.423Z,100535.34
2022-10-17T15:55:05.727Z,100537.59
2022-10-17T15:59:13.920Z,100537.63
2022-10-17T16:03:15.603Z,100544.66
2022-10-17T16:07:18.700Z,100547.00
2022-10-17T16:11:26.389Z,100550.34
2022-10-17T16:15:28.437Z,100555.94
2022-10-17T16:19:30.880Z,100556.97
2022-10-17T16:23:32.569Z,100558.28
2022-10-17T16:27:34.330Z,100553.34
2022-10-17T16:31:39.878Z,100557.06
2022-10-17T16:35:41.658Z,100559.31
2022-10-17T16:39:43.258Z,100559.28
2022-10-17T16:43:45.146Z,100566.22
2022-10-17T16:47:47.477Z,100564.69
2022-10-17T16:51:49.067Z,100573.81
2022-10-17T16:56:04.481Z,100577.59
2022-10-17T17:00:07.535Z,100583.59
2022-10-17T17:04:09.518Z,100587.59
2022-10-17T17:08:12.628Z,100598.91
2022-10-17T17:12:14.477Z,100606.50
2022-10-17T17:16:18.976Z,100601.19
2022-10-17T17:20:20.564Z,100602.28
2022-10-17T17:24:22.311Z,100613.94
2022-10-17T17:28:24.132Z,100615.00
2022-10-17T17:32:25.735Z,100616.34
2022-10-17T17:36:32.447Z,100625.75
2022-10-17T17:40:34.656Z,100624.81
2022-10-17T17:44:36.373Z,100614.97
2022-10-17T17:48:39.060Z,100620.25
2022-10-17T17:52:42.246Z,100623.03
2022-10-17T17:56:43.793Z,100618.00
2022-10-17T18:00:45.610Z,100614.09
2022-10-17T18:04:48.526Z,100621.47
2022-10-17T18:08:54.818Z,100621.03
2022-10-17T18:12:56.606Z,100639.03
2022-10-17T18:16:58.619Z,100641.09
2022-10-17T18:21:01.649Z,100649.25
2022-10-17T18:25:03.551Z,100650.13
2022-10-17T18:29:05.536Z,100654.06
2022-10-17T18:33:07.270Z,100647.06
2022-10-17T18:37:09.023Z,100652.66
2022-10-17T18:41:16.733Z,100649.25
2022-10-17T18:45:18.489Z,100652.31
2022-10-17T18:49:25.882Z,100660.13
2022-10-17T18:53:28.591Z,100659.28
2022-10-17T18:57:30.332Z,100653.13
2022-10-17T19:01:32.246Z,100660.44
2022-10-17T19:05:34.873Z,100660.44
2022-10-17T19:09:36.578Z,100662.09
2022-10-17T19:13:38.308Z,100661.25
2022-10-17T19:17:40.003Z,100660.44
2022-10-17T19:21:42.527Z,100660.44
2022-10-17T19:25:44.110Z,100660.16
2022-10-17T19:29:45.871Z,100651.22
2022-10-17T19:33:51.268Z,100652.66
2022-10-17T19:37:52.926Z,100650.97
2022-10-17T19:41:54.666Z,100643.72
2022-10-17T19:46:01.295Z,100642.66
2022-10-17T19:54:05.603Z,100641.81
2022-10-17T19:58:07.146Z,100629.25
2022-10-17T20:02:11.723Z,100635.97
2022-10-17T20:06:14.312Z,100630.38
2022-10-17T20:10:16.015Z,100634.59
2022-10-17T20:14:17.622Z,100636.25
2022-10-17T20:18:19.243Z,100638.53
2022-10-17T20:22:20.803Z,100623.72
2022-10-17T20:26:37.151Z,100631.53
2022-10-17T20:30:46.540Z,100631.28
2022-10-17T20:34:48.145Z,100638.56
2022-10-17T20:38:55.237Z,100646.13
2022-10-17T20:42:57.354Z,100648.34
2022-10-17T20:47:02.349Z,100649.81
2022-10-17T20:51:18.282Z,100641.69
2022-10-17T20:55:19.904Z,100648.69
2022-10-17T20:59:21.664Z,100650.94
2022-10-17T21:03:23.704Z,100649.25
2022-10-17T21:07:25.783Z,100656.25
2022-10-17T21:11:28.830Z,100650.41
2022-10-17T21:15:30.412Z,100650.41
2022-10-17T21:19:32.126Z,100649.84
2022-10-17T21:23:33.834Z,100659.09
2022-10-17T21:27:35.561Z,100647.94
2022-10-17T21:31:39.118Z,100651.00
2022-10-17T21:35:40.768Z,100660.25
2022-10-17T21:39:42.900Z,100656.34
2022-10-17T21:43:44.570Z,100655.81
2022-10-17T21:48:11.174Z,100652.47
2022-10-17T21:52:07.924Z,100656.72
2022-10-17T21:56:11.933Z,100656.47
2022-10-17T22:00:13.969Z,100656.47
2022-10-17T22:04:17.423Z,100655.34
2022-10-17T22:08:18.996Z,100664.28
2022-10-17T22:12:23.637Z,100656.47
2022-10-17T22:16:25.624Z,100663.19
2022-10-17T22:20:27.310Z,100646.97
2022-10-17T22:24:29.026Z,100652.56
2022-10-17T22:28:30.660Z,100648.06
2022-10-17T22:32:32.513Z,100653.66
2022-10-17T22:36:35.346Z,100657.88
2022-10-17T22:40:37.063Z,100653.13
2022-10-17T22:44:38.649Z,100648.66
2022-10-17T22:48:40.438Z,100645.00
2022-10-17T22:52:42.053Z,100643.31
2022-10-17T22:56:43.645Z,100637.44
2022-10-17T23:00:45.348Z,100626.28
2022-10-17T23:04:47.059Z,100628.53
2022-10-17T23:08:49.532Z,100624.59
2022-10-17T23:12:51.098Z,100630.19
2022-10-17T23:16:52.675Z,100626.59
2022-10-17T23:20:55.256Z,100630.78
2022-10-17T23:24:56.873Z,100622.94
2022-10-17T23:29:01.685Z,100624.66
2022-10-17T23:33:03.909Z,100620.22
2022-10-17T23:37:05.457Z,100617.44
2022-10-17T23:41:07.650Z,100612.72
2022-10-17T23:45:09.766Z,100620.25
2022-10-17T23:49:11.557Z,100627.22
2022-10-17T23:53:13.166Z,100624.44
2022-10-17T23:57:14.912Z,100622.47
